createdAt,value
2019-02-06T00:00:55.475Z,33.35
2019-02-06T00:03:24.855Z,34.80
2019-02-06T00:05:54.030Z,34.88
2019-02-06T00:08:42.301Z,35.90
2019-02-06T00:11:11.877Z,39.25
2019-02-06T00:13:41.035Z,37.73
2019-02-06T00:16:10.168Z,36.95
2019-02-06T00:18:39.358Z,37.28
2019-02-06T00:21:08.459Z,44.67
2019-02-06T00:23:37.630Z,35.48
2019-02-06T00:26:06.742Z,37.38
2019-02-06T00:28:35.904Z,37.93
2019-02-06T00:31:05.060Z,34.88
2019-02-06T00:33:34.158Z,33.65
2019-02-06T00:36:03.308Z,36.30
2019-02-06T00:38:32.453Z,39.15
2019-02-06T00:41:01.557Z,34.18
2019-02-06T00:43:30.647Z,37.95
2019-02-06T00:45:59.801Z,39.50
2019-02-06T00:48:29.779Z,35.85
2019-02-06T00:50:58.852Z,43.63
2019-02-06T00:53:28.059Z,42.48
2019-02-06T00:55:57.175Z,41.33
2019-02-06T00:58:26.553Z,40.08
2019-02-06T01:00:55.857Z,38.50
2019-02-06T01:03:25.005Z,38.20
2019-02-06T01:06:13.192Z,35.52
2019-02-06T01:08:42.773Z,40.73
2019-02-06T01:11:11.949Z,39.85
2019-02-06T01:13:41.039Z,36.70
2019-02-06T01:16:10.128Z,44.18
2019-02-06T01:18:39.279Z,36.03
2019-02-06T01:21:08.439Z,46.60
2019-02-06T01:23:37.536Z,42.00
2019-02-06T01:26:06.628Z,38.02
2019-02-06T01:28:35.733Z,43.87
2019-02-06T01:31:09.586Z,43.40
2019-02-06T01:33:38.662Z,36.83
2019-02-06T01:36:07.756Z,37.60
2019-02-06T01:38:36.849Z,36.68
2019-02-06T01:41:06.200Z,44.65
2019-02-06T01:43:35.264Z,37.17
2019-02-06T01:46:04.410Z,43.13
2019-02-06T01:48:33.522Z,39.10
2019-02-06T01:51:02.624Z,45.08
2019-02-06T01:53:31.803Z,41.92
2019-02-06T01:56:01.271Z,44.38
2019-02-06T01:58:30.446Z,39.50
2019-02-06T02:00:59.741Z,39.13
2019-02-06T02:03:28.847Z,39.03
2019-02-06T02:06:02.370Z,37.67
2019-02-06T02:08:30.262Z,40.30
2019-02-06T02:10:59.730Z,42.58
2019-02-06T02:13:28.817Z,36.98
2019-02-06T02:15:57.912Z,38.60
2019-02-06T02:18:27.098Z,40.85
2019-02-06T02:20:56.198Z,39.13
2019-02-06T02:23:25.289Z,35.03
2019-02-06T02:25:54.434Z,43.58
2019-02-06T02:28:23.542Z,39.30
2019-02-06T02:30:54.763Z,41.90
2019-02-06T02:33:23.848Z,38.40
2019-02-06T02:35:52.974Z,39.98
2019-02-06T02:38:22.060Z,37.80
2019-02-06T02:40:51.679Z,38.65
2019-02-06T02:43:20.782Z,38.02
2019-02-06T02:45:50.046Z,34.43
2019-02-06T02:48:19.238Z,39.55
2019-02-06T02:50:48.374Z,39.08
2019-02-06T02:53:17.468Z,36.53
2019-02-06T02:55:46.583Z,41.00
2019-02-06T02:58:15.667Z,34.08
2019-02-06T03:01:02.755Z,37.60
2019-02-06T03:03:49.940Z,42.40
2019-02-06T03:06:27.597Z,41.10
2019-02-06T03:08:49.906Z,39.35
2019-02-06T03:11:19.013Z,40.40
2019-02-06T03:13:48.173Z,37.70
2019-02-06T03:16:17.250Z,38.65
2019-02-06T03:18:46.750Z,37.53
2019-02-06T03:21:15.818Z,40.17
2019-02-06T03:23:44.864Z,36.68
2019-02-06T03:26:13.957Z,41.88
2019-02-06T03:28:42.956Z,40.43
2019-02-06T03:31:12.074Z,40.00
2019-02-06T03:33:41.176Z,42.95
2019-02-06T03:36:10.282Z,40.50
2019-02-06T03:38:39.354Z,42.85
2019-02-06T03:41:08.454Z,42.10
2019-02-06T03:43:37.538Z,38.60
2019-02-06T03:46:06.646Z,38.73
2019-02-06T03:48:35.737Z,36.58
2019-02-06T03:51:05.197Z,41.85
2019-02-06T03:53:34.280Z,39.63
2019-02-06T03:56:03.398Z,43.80
2019-02-06T03:58:32.474Z,41.37
2019-02-06T04:01:01.668Z,42.05
2019-02-06T04:03:30.756Z,39.33
2019-02-06T04:06:00.309Z,40.43
2019-02-06T04:08:29.407Z,35.85
2019-02-06T04:10:58.564Z,50.92
2019-02-06T04:13:27.634Z,37.08
2019-02-06T04:15:56.702Z,37.90
2019-02-06T04:18:26.053Z,40.35
2019-02-06T04:20:55.131Z,32.95
2019-02-06T04:23:24.701Z,36.45
2019-02-06T04:25:53.832Z,34.92
2019-02-06T04:28:23.271Z,41.20
2019-02-06T04:30:52.391Z,42.38
2019-02-06T04:33:21.502Z,39.15
2019-02-06T04:35:50.634Z,40.17
2019-02-06T04:38:19.742Z,49.75
2019-02-06T04:40:48.758Z,45.20
2019-02-06T04:43:17.940Z,39.50
2019-02-06T04:45:47.051Z,36.88
2019-02-06T04:48:16.155Z,35.48
2019-02-06T04:50:45.259Z,35.65
2019-02-06T04:53:14.684Z,37.95
2019-02-06T04:55:43.786Z,48.05
2019-02-06T04:58:12.871Z,55.48
2019-02-06T05:00:41.976Z,53.13
2019-02-06T05:03:11.076Z,50.20
2019-02-06T05:05:40.187Z,41.15
2019-02-06T05:08:09.656Z,39.25
2019-02-06T05:10:38.738Z,87.60
2019-02-06T05:13:07.812Z,78.42
2019-02-06T05:15:36.897Z,49.08
2019-02-06T05:18:06.121Z,47.35
2019-02-06T05:20:37.475Z,37.25
2019-02-06T05:23:09.167Z,37.13
2019-02-06T05:25:38.547Z,36.50
2019-02-06T05:28:07.823Z,36.68
2019-02-06T05:30:36.949Z,36.85
2019-02-06T05:33:06.064Z,39.90
2019-02-06T05:35:35.152Z,37.95
2019-02-06T05:38:04.735Z,38.55
2019-02-06T05:40:33.819Z,41.80
2019-02-06T05:43:02.927Z,43.68
2019-02-06T05:45:32.023Z,40.52
2019-02-06T05:48:01.110Z,40.92
2019-02-06T05:50:30.234Z,37.40
2019-02-06T05:52:59.321Z,39.03
2019-02-06T05:55:28.794Z,36.63
2019-02-06T05:57:57.882Z,37.60
2019-02-06T06:00:32.541Z,37.60
2019-02-06T06:03:01.627Z,37.10
2019-02-06T06:05:30.721Z,37.08
2019-02-06T06:07:59.803Z,35.00
2019-02-06T06:10:29.179Z,39.08
2019-02-06T06:12:58.299Z,37.95
2019-02-06T06:15:27.441Z,34.63
2019-02-06T06:17:56.517Z,42.35
2019-02-06T06:20:25.612Z,35.10
2019-02-06T06:22:54.773Z,33.95
2019-02-06T06:25:23.954Z,42.48
2019-02-06T06:27:53.037Z,39.67
2019-02-06T06:30:22.145Z,31.48
2019-02-06T06:32:51.669Z,40.67
2019-02-06T06:35:20.756Z,34.95
2019-02-06T06:38:00.054Z,36.75
2019-02-06T06:40:22.102Z,36.63
2019-02-06T06:42:51.798Z,38.83
2019-02-06T06:45:22.444Z,36.05
2019-02-06T06:47:51.687Z,36.30
2019-02-06T06:50:22.307Z,36.88
2019-02-06T06:52:51.483Z,36.83
2019-02-06T06:55:20.559Z,36.48
2019-02-06T06:57:49.841Z,40.83
2019-02-06T07:00:21.347Z,39.53
2019-02-06T07:02:50.537Z,35.73
2019-02-06T07:05:19.633Z,40.43
2019-02-06T07:07:48.715Z,37.80
2019-02-06T07:10:17.817Z,39.70
2019-02-06T07:12:46.905Z,38.35
2019-02-06T07:15:21.409Z,35.40
2019-02-06T07:17:50.568Z,35.85
2019-02-06T07:20:19.720Z,34.40
2019-02-06T07:22:49.121Z,36.33
2019-02-06T07:25:19.258Z,32.73
2019-02-06T07:27:48.449Z,37.90
2019-02-06T07:30:29.032Z,41.42
2019-02-06T07:32:58.293Z,57.10
2019-02-06T07:35:27.901Z,70.03
2019-02-06T07:37:57.389Z,59.98
2019-02-06T07:40:26.587Z,53.20
2019-02-06T07:42:55.675Z,50.17
2019-02-06T07:45:24.877Z,43.28
2019-02-06T07:47:53.939Z,42.33
2019-02-06T07:50:28.097Z,48.83
2019-02-06T07:52:57.537Z,39.40
2019-02-06T07:55:26.734Z,44.90
2019-02-06T07:57:55.887Z,42.45
2019-02-06T08:00:24.989Z,42.67
2019-02-06T08:02:54.617Z,38.17
2019-02-06T08:05:23.753Z,36.77
2019-02-06T08:07:53.116Z,41.20
2019-02-06T08:10:24.649Z,38.02
2019-02-06T08:12:53.726Z,33.15
2019-02-06T08:15:22.963Z,38.42
2019-02-06T08:17:52.135Z,36.30
2019-02-06T08:20:21.385Z,32.80
2019-02-06T08:22:50.756Z,33.92
2019-02-06T08:25:20.159Z,35.92
2019-02-06T08:27:49.351Z,32.15
2019-02-06T08:30:26.760Z,34.05
2019-02-06T08:32:55.857Z,35.35
2019-02-06T08:35:24.959Z,34.35
2019-02-06T08:37:54.823Z,31.10
2019-02-06T08:40:24.695Z,34.23
2019-02-06T08:42:53.981Z,28.57
2019-02-06T08:45:23.177Z,43.42
2019-02-06T08:47:52.294Z,36.13
2019-02-06T08:50:21.623Z,36.53
2019-02-06T08:52:51.389Z,39.30
2019-02-06T08:55:22.279Z,36.68
2019-02-06T08:57:51.855Z,37.40
2019-02-06T09:00:26.625Z,40.00
2019-02-06T09:02:55.741Z,40.92
2019-02-06T09:05:25.300Z,42.90
2019-02-06T09:07:54.473Z,40.73
2019-02-06T09:10:24.225Z,39.53
2019-02-06T09:12:54.896Z,38.55
2019-02-06T09:15:27.102Z,37.42
2019-02-06T09:17:55.354Z,37.20
2019-02-06T09:20:25.977Z,37.73
2019-02-06T09:22:55.385Z,37.60
2019-02-06T09:25:24.792Z,33.33
2019-02-06T09:27:53.887Z,39.10
2019-02-06T09:30:25.069Z,36.05
2019-02-06T09:32:54.617Z,37.83
2019-02-06T09:35:24.099Z,36.15
2019-02-06T09:37:53.312Z,36.97
2019-02-06T09:40:24.345Z,36.83
2019-02-06T09:42:53.464Z,30.45
2019-02-06T09:45:22.548Z,33.43
2019-02-06T09:47:51.635Z,30.67
2019-02-06T09:50:26.680Z,29.97
2019-02-06T09:52:55.777Z,30.67
2019-02-06T09:55:24.910Z,29.40
2019-02-06T09:57:54.101Z,32.17
2019-02-06T10:00:26.028Z,33.00
2019-02-06T10:02:55.131Z,31.97
2019-02-06T10:05:24.603Z,31.87
2019-02-06T10:07:53.700Z,31.37
2019-02-06T10:10:23.966Z,25.33
2019-02-06T10:12:53.262Z,31.67
2019-02-06T10:15:24.818Z,26.87
2019-02-06T10:17:54.464Z,30.10
2019-02-06T10:20:25.474Z,27.03
2019-02-06T10:22:54.575Z,28.17
2019-02-06T10:25:23.674Z,27.93
2019-02-06T10:27:52.768Z,29.73
2019-02-06T10:30:33.989Z,26.27
2019-02-06T10:33:03.251Z,26.00
2019-02-06T10:35:32.382Z,28.57
2019-02-06T10:38:01.475Z,30.03
2019-02-06T10:40:30.849Z,27.70
2019-02-06T10:43:00.063Z,29.57
2019-02-06T10:45:29.232Z,25.30
2019-02-06T10:47:58.590Z,27.97
2019-02-06T10:50:30.284Z,28.00
2019-02-06T10:52:59.378Z,24.33
2019-02-06T10:55:28.970Z,28.37
2019-02-06T10:57:58.246Z,24.60
2019-02-06T11:00:33.071Z,30.27
2019-02-06T11:03:02.365Z,28.63
2019-02-06T11:05:31.474Z,26.67
2019-02-06T11:08:00.569Z,26.43
2019-02-06T11:10:29.776Z,27.87
2019-02-06T11:12:58.883Z,27.10
2019-02-06T11:15:28.987Z,26.20
2019-02-06T11:17:58.192Z,25.87
2019-02-06T11:20:28.339Z,28.50
2019-02-06T11:22:57.426Z,26.77
2019-02-06T11:25:26.511Z,27.70
2019-02-06T11:27:55.608Z,29.47
2019-02-06T11:30:26.077Z,27.30
2019-02-06T11:32:55.394Z,26.50
2019-02-06T11:35:24.561Z,27.57
2019-02-06T11:37:53.839Z,25.27
2019-02-06T11:40:24.223Z,25.80
2019-02-06T11:42:53.375Z,29.77
2019-02-06T11:45:25.757Z,24.30
2019-02-06T11:47:54.871Z,22.43
2019-02-06T11:50:29.925Z,23.63
2019-02-06T11:52:59.039Z,24.30
2019-02-06T11:55:28.199Z,24.57
2019-02-06T11:57:57.369Z,21.77
2019-02-06T12:00:49.203Z,20.63
2019-02-06T12:03:18.474Z,22.53
2019-02-06T12:05:47.680Z,24.17
2019-02-06T12:08:16.779Z,22.97
2019-02-06T12:10:46.343Z,22.10
2019-02-06T12:13:15.437Z,22.03
2019-02-06T12:15:44.552Z,21.50
2019-02-06T12:18:13.643Z,24.60
2019-02-06T12:20:42.707Z,20.17
2019-02-06T12:23:11.821Z,26.10
2019-02-06T12:25:40.898Z,21.60
2019-02-06T12:28:09.998Z,18.87
2019-02-06T12:30:39.155Z,18.93
2019-02-06T12:33:08.437Z,18.10
2019-02-06T12:35:37.637Z,18.87
2019-02-06T12:38:07.025Z,22.20
2019-02-06T12:40:36.333Z,18.57
2019-02-06T12:43:06.349Z,18.40
2019-02-06T12:45:35.835Z,17.43
2019-02-06T12:48:05.379Z,17.30
2019-02-06T12:50:34.467Z,16.93
2019-02-06T12:53:04.071Z,16.60
2019-02-06T12:55:34.415Z,17.73
2019-02-06T12:58:04.009Z,17.03
2019-02-06T13:00:33.789Z,16.37
2019-02-06T13:03:03.054Z,17.70
2019-02-06T13:05:32.315Z,18.13
2019-02-06T13:08:01.517Z,16.20
2019-02-06T13:10:34.517Z,16.67
2019-02-06T13:13:01.516Z,14.67
2019-02-06T13:15:30.699Z,16.60
2019-02-06T13:17:59.853Z,15.90
2019-02-06T13:20:29.748Z,13.77
2019-02-06T13:22:58.932Z,14.17
2019-02-06T13:25:28.068Z,14.40
2019-02-06T13:27:57.179Z,13.53
2019-02-06T13:30:34.393Z,17.50
2019-02-06T13:33:03.671Z,13.10
2019-02-06T13:35:32.960Z,13.83
2019-02-06T13:38:02.037Z,13.00
2019-02-06T13:40:31.223Z,14.83
2019-02-06T13:43:00.337Z,15.53
2019-02-06T13:45:32.233Z,14.17
2019-02-06T13:48:01.732Z,11.77
2019-02-06T13:50:30.916Z,15.30
2019-02-06T13:53:00.023Z,12.27
2019-02-06T13:55:29.223Z,13.23
2019-02-06T13:57:58.324Z,12.70
2019-02-06T14:00:32.525Z,14.47
2019-02-06T14:03:01.881Z,11.70
2019-02-06T14:05:32.227Z,15.70
2019-02-06T14:08:03.923Z,12.10
2019-02-06T14:10:33.014Z,11.57
2019-02-06T14:13:02.691Z,11.70
2019-02-06T14:15:34.410Z,12.30
2019-02-06T14:18:03.518Z,10.60
2019-02-06T14:20:32.697Z,13.13
2019-02-06T14:23:14.129Z,11.50
2019-02-06T14:25:50.562Z,13.23
2019-02-06T14:29:25.512Z,14.43
2019-02-06T14:32:32.609Z,12.03
2019-02-06T14:35:32.933Z,12.47
2019-02-06T14:38:33.365Z,11.97
2019-02-06T14:41:36.405Z,11.73
2019-02-06T14:44:43.347Z,11.23
2019-02-06T14:47:34.439Z,16.50
2019-02-06T14:50:20.495Z,11.27
2019-02-06T14:53:30.746Z,11.83
2019-02-06T14:56:49.203Z,10.07
2019-02-06T15:00:12.142Z,9.37
2019-02-06T15:03:33.881Z,12.33
2019-02-06T15:06:43.849Z,15.20
2019-02-06T15:10:07.029Z,69.77
2019-02-06T15:13:12.285Z,12.53
2019-02-06T15:16:28.922Z,12.23
2019-02-06T15:19:20.578Z,12.83
2019-02-06T15:22:40.019Z,11.17
2019-02-06T15:25:26.199Z,12.13
2019-02-06T15:28:45.470Z,12.20
2019-02-06T15:32:01.578Z,12.00
2019-02-06T15:34:58.978Z,13.63
2019-02-06T15:38:05.392Z,10.00
2019-02-06T15:40:47.793Z,10.37
2019-02-06T15:43:57.906Z,11.70
2019-02-06T15:47:08.622Z,10.60
2019-02-06T15:49:56.660Z,13.63
2019-02-06T15:52:57.852Z,14.67
2019-02-06T15:56:20.198Z,21.17
2019-02-06T15:59:31.967Z,19.23
2019-02-06T16:02:32.248Z,22.57
2019-02-06T16:05:43.924Z,15.20
2019-02-06T16:08:45.600Z,14.03
2019-02-06T16:11:59.246Z,11.87
2019-02-06T16:14:57.176Z,13.90
2019-02-06T16:17:51.426Z,15.87
2019-02-06T16:21:13.173Z,45.63
2019-02-06T16:24:13.725Z,15.33
2019-02-06T16:27:18.970Z,12.97
2019-02-06T16:30:15.836Z,12.47
2019-02-06T16:33:12.337Z,15.77
2019-02-06T16:36:17.516Z,12.93
2019-02-06T16:39:04.394Z,10.87
2019-02-06T16:42:15.442Z,11.83
2019-02-06T16:45:28.907Z,15.30
2019-02-06T16:48:51.334Z,20.40
2019-02-06T16:51:31.522Z,19.13
2019-02-06T16:54:24.606Z,19.20
2019-02-06T16:57:21.230Z,18.70
2019-02-06T17:00:19.596Z,19.47
2019-02-06T17:03:30.465Z,21.23
2019-02-06T17:06:37.100Z,22.83
2019-02-06T17:09:44.466Z,21.37
2019-02-06T17:12:57.666Z,18.77
2019-02-06T17:15:58.264Z,22.03
2019-02-06T17:18:42.794Z,17.67
2019-02-06T17:21:48.864Z,18.27
2019-02-06T17:24:47.164Z,18.20
2019-02-06T17:27:47.069Z,19.53
2019-02-06T17:30:59.811Z,17.93
2019-02-06T17:34:01.214Z,18.70
2019-02-06T17:36:52.195Z,16.63
2019-02-06T17:40:11.583Z,14.63
2019-02-06T17:43:28.757Z,18.13
2019-02-06T17:46:21.652Z,22.50
2019-02-06T17:49:41.381Z,23.93
2019-02-06T17:52:57.754Z,90.80
2019-02-06T17:55:27.242Z,88.10
2019-02-06T17:57:58.434Z,82.37
2019-02-06T18:00:47.566Z,86.47
2019-02-06T18:03:16.763Z,103.33
2019-02-06T18:05:46.330Z,66.63
2019-02-06T18:08:16.017Z,59.63
2019-02-06T18:10:45.228Z,47.47
2019-02-06T18:13:14.396Z,26.97
2019-02-06T18:15:43.581Z,23.47
2019-02-06T18:18:12.781Z,16.37
2019-02-06T18:20:42.466Z,15.40
2019-02-06T18:23:11.599Z,29.03
2019-02-06T18:25:41.603Z,74.97
2019-02-06T18:28:11.974Z,73.67
2019-02-06T18:30:41.207Z,62.07
2019-02-06T18:33:10.461Z,34.33
2019-02-06T18:35:40.471Z,19.60
2019-02-06T18:38:09.933Z,14.67
2019-02-06T18:40:42.419Z,13.40
2019-02-06T18:43:11.586Z,12.53
2019-02-06T18:45:40.668Z,11.20
2019-02-06T18:48:10.290Z,14.20
2019-02-06T18:50:40.317Z,12.07
2019-02-06T18:53:09.811Z,13.87
2019-02-06T18:55:39.282Z,13.37
2019-02-06T18:58:09.947Z,11.90
2019-02-06T19:00:39.353Z,13.80
2019-02-06T19:03:15.753Z,12.93
2019-02-06T19:05:44.911Z,13.60
2019-02-06T19:08:14.288Z,10.90
2019-02-06T19:10:44.244Z,15.37
2019-02-06T19:13:13.622Z,14.73
2019-02-06T19:15:42.784Z,10.90
2019-02-06T19:18:11.943Z,9.50
2019-02-06T19:20:41.108Z,16.53
2019-02-06T19:23:10.337Z,12.97
2019-02-06T19:25:39.700Z,12.47
2019-02-06T19:28:08.904Z,14.43
2019-02-06T19:30:39.114Z,13.57
2019-02-06T19:33:08.930Z,14.23
2019-02-06T19:35:38.112Z,14.43
2019-02-06T19:38:07.473Z,12.40
2019-02-06T19:40:36.715Z,12.20
2019-02-06T19:43:05.869Z,15.33
2019-02-06T19:45:35.523Z,12.60
2019-02-06T19:48:15.306Z,12.30
2019-02-06T19:50:37.742Z,15.60
2019-02-06T19:53:06.916Z,15.43
2019-02-06T19:55:36.114Z,53.10
2019-02-06T19:58:06.264Z,36.27
2019-02-06T20:00:35.593Z,22.43
2019-02-06T20:03:08.028Z,18.93
2019-02-06T20:05:36.868Z,15.67
2019-02-06T20:08:06.715Z,17.70
2019-02-06T20:10:38.355Z,15.27
2019-02-06T20:13:12.254Z,16.40
2019-02-06T20:15:38.394Z,14.93
2019-02-06T20:18:07.631Z,15.20
2019-02-06T20:20:36.816Z,18.62
2019-02-06T20:23:05.970Z,16.03
2019-02-06T20:25:35.171Z,15.30
2019-02-06T20:28:04.549Z,16.00
2019-02-06T20:30:34.163Z,18.60
2019-02-06T20:33:03.410Z,13.70
2019-02-06T20:35:32.659Z,18.15
2019-02-06T20:38:01.765Z,20.10
2019-02-06T20:40:32.889Z,18.10
2019-02-06T20:43:02.139Z,16.63
2019-02-06T20:45:31.918Z,22.42
2019-02-06T20:48:01.180Z,20.02
2019-02-06T20:50:32.024Z,21.25
2019-02-06T20:53:01.490Z,17.20
2019-02-06T20:55:30.686Z,21.12
2019-02-06T20:57:59.887Z,24.50
2019-02-06T21:00:34.489Z,21.82
2019-02-06T21:03:03.905Z,25.10
2019-02-06T21:05:33.117Z,23.98
2019-02-06T21:08:02.509Z,24.50
2019-02-06T21:10:31.741Z,31.62
2019-02-06T21:13:00.921Z,26.65
2019-02-06T21:15:32.691Z,28.12
2019-02-06T21:18:00.860Z,26.17
2019-02-06T21:20:29.990Z,27.20
2019-02-06T21:22:59.617Z,28.38
2019-02-06T21:25:28.803Z,26.90
2019-02-06T21:27:57.966Z,26.23
2019-02-06T21:30:32.086Z,27.70
2019-02-06T21:33:01.275Z,26.97
2019-02-06T21:35:30.441Z,27.48
2019-02-06T21:38:00.001Z,27.13
2019-02-06T21:40:31.166Z,29.35
2019-02-06T21:43:00.344Z,29.92
2019-02-06T21:45:29.665Z,30.77
2019-02-06T21:47:58.805Z,28.32
2019-02-06T21:50:28.036Z,29.37
2019-02-06T21:52:57.566Z,30.08
2019-02-06T21:55:26.764Z,31.70
2019-02-06T21:57:56.006Z,33.67
2019-02-06T22:00:30.324Z,32.60
2019-02-06T22:03:00.214Z,34.70
2019-02-06T22:05:29.474Z,34.25
2019-02-06T22:07:58.619Z,32.58
2019-02-06T22:10:27.733Z,37.67
2019-02-06T22:12:56.836Z,31.60
2019-02-06T22:15:26.915Z,35.80
2019-02-06T22:17:55.987Z,36.83
2019-02-06T22:20:26.202Z,35.20
2019-02-06T22:22:55.384Z,34.73
2019-02-06T22:25:24.579Z,34.67
2019-02-06T22:27:53.746Z,35.38
2019-02-06T22:30:24.793Z,34.25
2019-02-06T22:32:53.959Z,36.28
2019-02-06T22:35:23.663Z,34.30
2019-02-06T22:37:53.010Z,32.40
2019-02-06T22:40:23.291Z,32.23
2019-02-06T22:42:52.489Z,36.20
2019-02-06T22:45:23.445Z,31.52
2019-02-06T22:47:52.528Z,33.73
2019-02-06T22:50:23.887Z,36.20
2019-02-06T22:52:53.001Z,32.75
2019-02-06T22:55:22.105Z,39.98
2019-02-06T22:57:51.292Z,38.28
2019-02-06T23:00:50.254Z,37.90
2019-02-06T23:03:25.629Z,39.25
2019-02-06T23:05:54.714Z,42.17
2019-02-06T23:08:23.887Z,47.10
2019-02-06T23:10:53.072Z,127.58
2019-02-06T23:13:22.262Z,143.80
2019-02-06T23:15:51.430Z,116.30
2019-02-06T23:18:20.533Z,82.88
2019-02-06T23:20:49.631Z,71.57
2019-02-06T23:23:18.764Z,65.30
2019-02-06T23:25:47.958Z,47.70
2019-02-06T23:28:17.066Z,49.80
2019-02-06T23:30:46.166Z,50.43
2019-02-06T23:33:15.335Z,45.03
2019-02-06T23:35:44.462Z,47.25
2019-02-06T23:38:13.562Z,49.20
2019-02-06T23:40:42.730Z,46.02
2019-02-06T23:43:11.994Z,43.17
2019-02-06T23:45:41.158Z,48.98
2019-02-06T23:48:10.251Z,48.40
2019-02-06T23:50:39.418Z,55.95
2019-02-06T23:53:08.516Z,50.98
2019-02-06T23:55:37.580Z,43.70
2019-02-06T23:58:06.758Z,44.35
